sensor_id;sensor_type;location;lat;lon;timestamp;P1;durP1;ratioP1;P2;durP2;ratioP2
23668;SDS011;12011;47.422;15.018;2022-12-18T00:00:56;7.94;;;7.61;;
23668;SDS011;12011;47.422;15.018;2022-12-18T00:03:34;8.42;;;8.08;;
23668;SDS011;12011;47.422;15.018;2022-12-18T00:06:11;8.23;;;7.88;;
23668;SDS011;12011;47.422;15.018;2022-12-18T00:08:45;7.99;;;7.65;;
23668;SDS011;12011;47.422;15.018;2022-12-18T00:11:18;8.51;;;8.11;;
23668;SDS011;12011;47.422;15.018;2022-12-18T00:13:57;8.21;;;7.72;;
23668;SDS011;12011;47.422;15.018;2022-12-18T00:16:30;7.89;;;7.53;;
23668;SDS011;12011;47.422;15.018;2022-12-18T00:19:08;7.83;;;7.55;;
23668;SDS011;12011;47.422;15.018;2022-12-18T00:21:43;7.97;;;7.64;;
23668;SDS011;12011;47.422;15.018;2022-12-18T00:24:14;7.81;;;7.47;;
23668;SDS011;12011;47.422;15.018;2022-12-18T00:26:44;9.71;;;9.25;;
23668;SDS011;12011;47.422;15.018;2022-12-18T00:29:20;11.69;;;11.13;;
23668;SDS011;12011;47.422;15.018;2022-12-18T00:31:51;10.44;;;9.98;;
23668;SDS011;12011;47.422;15.018;2022-12-18T00:34:22;10.78;;;10.33;;
23668;SDS011;12011;47.422;15.018;2022-12-18T00:36:56;9.67;;;9.23;;
23668;SDS011;12011;47.422;15.018;2022-12-18T00:39:27;9.46;;;8.86;;
23668;SDS011;12011;47.422;15.018;2022-12-18T00:41:58;9.38;;;8.82;;
23668;SDS011;12011;47.422;15.018;2022-12-18T00:44:40;9.04;;;8.52;;
23668;SDS011;12011;47.422;15.018;2022-12-18T00:47:10;8.86;;;8.45;;
23668;SDS011;12011;47.422;15.018;2022-12-18T00:49:39;8.82;;;8.44;;
23668;SDS011;12011;47.422;15.018;2022-12-18T00:52:13;9.11;;;8.63;;
23668;SDS011;12011;47.422;15.018;2022-12-18T00:54:43;9.19;;;8.56;;
23668;SDS011;12011;47.422;15.018;2022-12-18T00:57:15;8.16;;;7.68;;
23668;SDS011;12011;47.422;15.018;2022-12-18T00:59:45;7.59;;;7.15;;
23668;SDS011;12011;47.422;15.018;2022-12-18T01:02:14;8.12;;;7.64;;
23668;SDS011;12011;47.422;15.018;2022-12-18T01:04:44;7.77;;;7.31;;
23668;SDS011;12011;47.422;15.018;2022-12-18T01:07:21;7.48;;;7.07;;
23668;SDS011;12011;47.422;15.018;2022-12-18T01:09:51;6.60;;;6.33;;
23668;SDS011;12011;47.422;15.018;2022-12-18T01:12:20;6.90;;;6.52;;
23668;SDS011;12011;47.422;15.018;2022-12-18T01:14:50;6.70;;;6.22;;
23668;SDS011;12011;47.422;15.018;2022-12-18T01:17:20;6.97;;;6.58;;
23668;SDS011;12011;47.422;15.018;2022-12-18T01:19:53;7.12;;;6.81;;
23668;SDS011;12011;47.422;15.018;2022-12-18T01:22:26;7.32;;;7.04;;
23668;SDS011;12011;47.422;15.018;2022-12-18T01:25:00;9.75;;;9.18;;
23668;SDS011;12011;47.422;15.018;2022-12-18T01:27:30;7.73;;;7.36;;
23668;SDS011;12011;47.422;15.018;2022-12-18T01:30:03;8.15;;;7.76;;
23668;SDS011;12011;47.422;15.018;2022-12-18T01:32:35;9.73;;;9.25;;
23668;SDS011;12011;47.422;15.018;2022-12-18T01:35:05;9.20;;;8.59;;
23668;SDS011;12011;47.422;15.018;2022-12-18T01:37:38;7.63;;;7.15;;
23668;SDS011;12011;47.422;15.018;2022-12-18T01:40:08;7.87;;;7.29;;
23668;SDS011;12011;47.422;15.018;2022-12-18T01:42:41;7.66;;;7.21;;
23668;SDS011;12011;47.422;15.018;2022-12-18T01:45:22;7.29;;;6.80;;
23668;SDS011;12011;47.422;15.018;2022-12-18T01:47:55;7.76;;;7.23;;
23668;SDS011;12011;47.422;15.018;2022-12-18T01:50:30;7.74;;;7.06;;
23668;SDS011;12011;47.422;15.018;2022-12-18T01:53:06;6.78;;;6.32;;
23668;SDS011;12011;47.422;15.018;2022-12-18T01:55:43;7.11;;;6.67;;
23668;SDS011;12011;47.422;15.018;2022-12-18T01:58:17;7.75;;;7.19;;
23668;SDS011;12011;47.422;15.018;2022-12-18T02:00:48;7.70;;;7.16;;
23668;SDS011;12011;47.422;15.018;2022-12-18T02:03:25;7.07;;;6.61;;
23668;SDS011;12011;47.422;15.018;2022-12-18T02:05:56;6.75;;;6.30;;
23668;SDS011;12011;47.422;15.018;2022-12-18T02:08:40;7.39;;;6.93;;
23668;SDS011;12011;47.422;15.018;2022-12-18T02:11:33;6.67;;;6.20;;
23668;SDS011;12011;47.422;15.018;2022-12-18T02:14:17;6.90;;;6.24;;
23668;SDS011;12011;47.422;15.018;2022-12-18T02:16:56;6.59;;;6.01;;
23668;SDS011;12011;47.422;15.018;2022-12-18T02:19:46;6.44;;;5.93;;
23668;SDS011;12011;47.422;15.018;2022-12-18T02:22:40;6.58;;;5.97;;
23668;SDS011;12011;47.422;15.018;2022-12-18T02:25:38;6.95;;;6.13;;
23668;SDS011;12011;47.422;15.018;2022-12-18T02:28:31;7.44;;;6.57;;
23668;SDS011;12011;47.422;15.018;2022-12-18T02:31:11;9.27;;;8.12;;
23668;SDS011;12011;47.422;15.018;2022-12-18T02:33:49;9.30;;;8.15;;
23668;SDS011;12011;47.422;15.018;2022-12-18T02:36:27;8.67;;;7.53;;
23668;SDS011;12011;47.422;15.018;2022-12-18T02:38:59;7.30;;;6.29;;
23668;SDS011;12011;47.422;15.018;2022-12-18T02:41:35;6.64;;;5.86;;
23668;SDS011;12011;47.422;15.018;2022-12-18T02:44:08;7.21;;;6.40;;
23668;SDS011;12011;47.422;15.018;2022-12-18T02:46:42;7.45;;;6.59;;
23668;SDS011;12011;47.422;15.018;2022-12-18T02:49:22;8.44;;;7.25;;
23668;SDS011;12011;47.422;15.018;2022-12-18T02:52:05;7.01;;;6.31;;
23668;SDS011;12011;47.422;15.018;2022-12-18T02:54:50;6.59;;;5.82;;
23668;SDS011;12011;47.422;15.018;2022-12-18T02:57:34;6.12;;;5.48;;
23668;SDS011;12011;47.422;15.018;2022-12-18T03:00:11;5.91;;;5.29;;
23668;SDS011;12011;47.422;15.018;2022-12-18T03:02:48;6.51;;;5.76;;
23668;SDS011;12011;47.422;15.018;2022-12-18T03:05:27;6.00;;;5.29;;
23668;SDS011;12011;47.422;15.018;2022-12-18T03:08:03;5.34;;;4.69;;
23668;SDS011;12011;47.422;15.018;2022-12-18T03:10:41;4.92;;;4.37;;
23668;SDS011;12011;47.422;15.018;2022-12-18T03:13:23;4.54;;;4.09;;
23668;SDS011;12011;47.422;15.018;2022-12-18T03:16:04;4.46;;;4.10;;
23668;SDS011;12011;47.422;15.018;2022-12-18T03:18:42;4.99;;;4.67;;
23668;SDS011;12011;47.422;15.018;2022-12-18T03:21:22;5.64;;;5.41;;
23668;SDS011;12011;47.422;15.018;2022-12-18T03:24:07;4.74;;;4.61;;
23668;SDS011;12011;47.422;15.018;2022-12-18T03:26:43;5.19;;;4.96;;
23668;SDS011;12011;47.422;15.018;2022-12-18T03:29:23;4.71;;;4.48;;
23668;SDS011;12011;47.422;15.018;2022-12-18T03:32:04;4.87;;;4.63;;
23668;SDS011;12011;47.422;15.018;2022-12-18T03:34:39;4.86;;;4.59;;
23668;SDS011;12011;47.422;15.018;2022-12-18T03:37:19;5.08;;;4.80;;
23668;SDS011;12011;47.422;15.018;2022-12-18T03:39:51;5.69;;;5.35;;
23668;SDS011;12011;47.422;15.018;2022-12-18T03:42:23;6.33;;;5.97;;
23668;SDS011;12011;47.422;15.018;2022-12-18T03:45:12;6.51;;;6.20;;
23668;SDS011;12011;47.422;15.018;2022-12-18T03:47:58;7.23;;;6.83;;
23668;SDS011;12011;47.422;15.018;2022-12-18T03:50:38;6.49;;;6.25;;
23668;SDS011;12011;47.422;15.018;2022-12-18T03:53:18;6.32;;;6.04;;
23668;SDS011;12011;47.422;15.018;2022-12-18T03:56:02;7.27;;;6.86;;
23668;SDS011;12011;47.422;15.018;2022-12-18T03:58:38;6.37;;;5.93;;
23668;SDS011;12011;47.422;15.018;2022-12-18T04:01:20;6.36;;;5.95;;
23668;SDS011;12011;47.422;15.018;2022-12-18T04:03:57;6.42;;;6.05;;
23668;SDS011;12011;47.422;15.018;2022-12-18T04:06:34;6.82;;;6.38;;
23668;SDS011;12011;47.422;15.018;2022-12-18T04:09:06;6.73;;;6.22;;
23668;SDS011;12011;47.422;15.018;2022-12-18T04:11:41;6.61;;;6.09;;
23668;SDS011;12011;47.422;15.018;2022-12-18T04:14:13;5.85;;;5.24;;
23668;SDS011;12011;47.422;15.018;2022-12-18T04:16:46;5.22;;;4.86;;
23668;SDS011;12011;47.422;15.018;2022-12-18T04:19:21;5.29;;;4.97;;
23668;SDS011;12011;47.422;15.018;2022-12-18T04:21:52;5.71;;;5.26;;
23668;SDS011;12011;47.422;15.018;2022-12-18T04:24:22;5.74;;;5.31;;
23668;SDS011;12011;47.422;15.018;2022-12-18T04:27:06;5.49;;;5.06;;
23668;SDS011;12011;47.422;15.018;2022-12-18T04:29:42;5.12;;;4.74;;
23668;SDS011;12011;47.422;15.018;2022-12-18T04:32:18;4.87;;;4.60;;
23668;SDS011;12011;47.422;15.018;2022-12-18T04:34:48;4.36;;;4.10;;
23668;SDS011;12011;47.422;15.018;2022-12-18T04:37:20;4.57;;;4.33;;
23668;SDS011;12011;47.422;15.018;2022-12-18T04:39:50;4.62;;;4.36;;
23668;SDS011;12011;47.422;15.018;2022-12-18T04:42:29;4.52;;;4.23;;
23668;SDS011;12011;47.422;15.018;2022-12-18T04:44:59;5.00;;;4.63;;
23668;SDS011;12011;47.422;15.018;2022-12-18T04:47:31;5.46;;;5.13;;
23668;SDS011;12011;47.422;15.018;2022-12-18T04:50:02;5.13;;;4.83;;
23668;SDS011;12011;47.422;15.018;2022-12-18T04:52:32;5.48;;;5.20;;
23668;SDS011;12011;47.422;15.018;2022-12-18T04:55:04;6.73;;;6.27;;
23668;SDS011;12011;47.422;15.018;2022-12-18T04:57:34;6.15;;;5.83;;
23668;SDS011;12011;47.422;15.018;2022-12-18T05:00:04;4.88;;;4.64;;
23668;SDS011;12011;47.422;15.018;2022-12-18T05:02:39;4.99;;;4.81;;
23668;SDS011;12011;47.422;15.018;2022-12-18T05:05:09;5.14;;;4.95;;
23668;SDS011;12011;47.422;15.018;2022-12-18T05:07:39;5.08;;;4.84;;
23668;SDS011;12011;47.422;15.018;2022-12-18T05:10:08;5.12;;;4.80;;
23668;SDS011;12011;47.422;15.018;2022-12-18T05:12:38;5.36;;;5.08;;
23668;SDS011;12011;47.422;15.018;2022-12-18T05:15:20;5.41;;;5.04;;
23668;SDS011;12011;47.422;15.018;2022-12-18T05:17:52;5.44;;;5.05;;
23668;SDS011;12011;47.422;15.018;2022-12-18T05:20:22;5.30;;;4.98;;
23668;SDS011;12011;47.422;15.018;2022-12-18T05:22:52;5.02;;;4.72;;
23668;SDS011;12011;47.422;15.018;2022-12-18T05:25:22;5.74;;;5.28;;
23668;SDS011;12011;47.422;15.018;2022-12-18T05:27:52;5.54;;;5.18;;
23668;SDS011;12011;47.422;15.018;2022-12-18T05:30:22;5.15;;;4.88;;
23668;SDS011;12011;47.422;15.018;2022-12-18T05:32:54;5.37;;;5.17;;
23668;SDS011;12011;47.422;15.018;2022-12-18T05:35:24;5.13;;;4.93;;
23668;SDS011;12011;47.422;15.018;2022-12-18T05:37:53;5.13;;;4.92;;
23668;SDS011;12011;47.422;15.018;2022-12-18T05:40:23;5.08;;;4.82;;
23668;SDS011;12011;47.422;15.018;2022-12-18T05:42:52;5.58;;;5.28;;
23668;SDS011;12011;47.422;15.018;2022-12-18T05:45:21;5.04;;;4.82;;
23668;SDS011;12011;47.422;15.018;2022-12-18T05:47:54;4.93;;;4.71;;
23668;SDS011;12011;47.422;15.018;2022-12-18T05:50:23;4.76;;;4.52;;
23668;SDS011;12011;47.422;15.018;2022-12-18T05:53:00;4.44;;;4.22;;
23668;SDS011;12011;47.422;15.018;2022-12-18T05:55:32;4.82;;;4.64;;
23668;SDS011;12011;47.422;15.018;2022-12-18T05:58:02;5.37;;;5.09;;
23668;SDS011;12011;47.422;15.018;2022-12-18T06:00:33;5.29;;;5.05;;
23668;SDS011;12011;47.422;15.018;2022-12-18T06:03:08;5.53;;;5.30;;
23668;SDS011;12011;47.422;15.018;2022-12-18T06:05:39;5.42;;;5.22;;
23668;SDS011;12011;47.422;15.018;2022-12-18T06:08:12;5.56;;;5.22;;
23668;SDS011;12011;47.422;15.018;2022-12-18T06:10:45;5.47;;;5.16;;
23668;SDS011;12011;47.422;15.018;2022-12-18T06:13:20;5.78;;;5.52;;
23668;SDS011;12011;47.422;15.018;2022-12-18T06:15:50;6.14;;;5.84;;
23668;SDS011;12011;47.422;15.018;2022-12-18T06:18:22;6.21;;;5.87;;
23668;SDS011;12011;47.422;15.018;2022-12-18T06:20:55;8.29;;;7.90;;
23668;SDS011;12011;47.422;15.018;2022-12-18T06:23:25;6.70;;;6.33;;
23668;SDS011;12011;47.422;15.018;2022-12-18T06:25:54;6.44;;;6.15;;
23668;SDS011;12011;47.422;15.018;2022-12-18T06:28:25;7.58;;;7.07;;
23668;SDS011;12011;47.422;15.018;2022-12-18T06:30:54;10.13;;;9.64;;
23668;SDS011;12011;47.422;15.018;2022-12-18T06:33:28;11.77;;;11.27;;
23668;SDS011;12011;47.422;15.018;2022-12-18T06:35:59;8.40;;;8.13;;
23668;SDS011;12011;47.422;15.018;2022-12-18T06:38:31;7.16;;;6.86;;
23668;SDS011;12011;47.422;15.018;2022-12-18T06:41:05;8.00;;;7.55;;
23668;SDS011;12011;47.422;15.018;2022-12-18T06:43:36;8.11;;;7.51;;
23668;SDS011;12011;47.422;15.018;2022-12-18T06:46:05;7.68;;;7.08;;
23668;SDS011;12011;47.422;15.018;2022-12-18T06:48:38;8.67;;;8.01;;
23668;SDS011;12011;47.422;15.018;2022-12-18T06:51:08;8.29;;;7.67;;
23668;SDS011;12011;47.422;15.018;2022-12-18T06:53:37;8.28;;;7.76;;
23668;SDS011;12011;47.422;15.018;2022-12-18T06:56:07;7.36;;;6.95;;
23668;SDS011;12011;47.422;15.018;2022-12-18T06:58:37;6.98;;;6.53;;
23668;SDS011;12011;47.422;15.018;2022-12-18T07:01:08;7.51;;;6.89;;
23668;SDS011;12011;47.422;15.018;2022-12-18T07:03:43;10.49;;;9.71;;
23668;SDS011;12011;47.422;15.018;2022-12-18T07:06:16;14.93;;;13.89;;
23668;SDS011;12011;47.422;15.018;2022-12-18T07:08:53;19.55;;;17.87;;
23668;SDS011;12011;47.422;15.018;2022-12-18T07:11:23;16.32;;;15.22;;
23668;SDS011;12011;47.422;15.018;2022-12-18T07:13:53;13.48;;;12.44;;
23668;SDS011;12011;47.422;15.018;2022-12-18T07:16:25;12.62;;;11.63;;
23668;SDS011;12011;47.422;15.018;2022-12-18T07:18:57;15.01;;;14.09;;
23668;SDS011;12011;47.422;15.018;2022-12-18T07:21:27;16.71;;;15.40;;
23668;SDS011;12011;47.422;15.018;2022-12-18T07:23:56;17.13;;;15.90;;
23668;SDS011;12011;47.422;15.018;2022-12-18T07:26:26;16.21;;;15.26;;
23668;SDS011;12011;47.422;15.018;2022-12-18T07:28:56;15.14;;;14.08;;
23668;SDS011;12011;47.422;15.018;2022-12-18T07:31:26;13.05;;;12.36;;
23668;SDS011;12011;47.422;15.018;2022-12-18T07:33:59;11.59;;;11.12;;
23668;SDS011;12011;47.422;15.018;2022-12-18T07:36:28;11.90;;;11.29;;
23668;SDS011;12011;47.422;15.018;2022-12-18T07:38:58;12.46;;;11.80;;
23668;SDS011;12011;47.422;15.018;2022-12-18T07:41:27;12.52;;;12.07;;
23668;SDS011;12011;47.422;15.018;2022-12-18T07:44:08;11.87;;;11.41;;
23668;SDS011;12011;47.422;15.018;2022-12-18T07:46:38;11.30;;;10.83;;
23668;SDS011;12011;47.422;15.018;2022-12-18T07:49:11;10.78;;;10.45;;
23668;SDS011;12011;47.422;15.018;2022-12-18T07:51:40;10.66;;;10.39;;
23668;SDS011;12011;47.422;15.018;2022-12-18T07:54:14;13.49;;;12.95;;
23668;SDS011;12011;47.422;15.018;2022-12-18T07:56:44;13.30;;;12.85;;
23668;SDS011;12011;47.422;15.018;2022-12-18T07:59:14;13.27;;;12.75;;
23668;SDS011;12011;47.422;15.018;2022-12-18T08:01:44;12.60;;;12.02;;
23668;SDS011;12011;47.422;15.018;2022-12-18T08:04:16;13.36;;;12.85;;
23668;SDS011;12011;47.422;15.018;2022-12-18T08:06:48;11.90;;;11.65;;
23668;SDS011;12011;47.422;15.018;2022-12-18T08:09:18;11.24;;;10.97;;
23668;SDS011;12011;47.422;15.018;2022-12-18T08:11:48;12.26;;;11.89;;
23668;SDS011;12011;47.422;15.018;2022-12-18T08:14:17;12.14;;;11.77;;
23668;SDS011;12011;47.422;15.018;2022-12-18T08:16:47;13.25;;;12.88;;
23668;SDS011;12011;47.422;15.018;2022-12-18T08:19:19;11.42;;;11.17;;
23668;SDS011;12011;47.422;15.018;2022-12-18T08:21:49;11.84;;;11.66;;
23668;SDS011;12011;47.422;15.018;2022-12-18T08:24:18;11.79;;;11.64;;
23668;SDS011;12011;47.422;15.018;2022-12-18T08:26:48;10.29;;;10.05;;
23668;SDS011;12011;47.422;15.018;2022-12-18T08:29:17;8.26;;;8.10;;
23668;SDS011;12011;47.422;15.018;2022-12-18T08:31:47;9.40;;;9.32;;
23668;SDS011;12011;47.422;15.018;2022-12-18T08:34:19;10.22;;;10.07;;
23668;SDS011;12011;47.422;15.018;2022-12-18T08:36:49;10.21;;;10.06;;
23668;SDS011;12011;47.422;15.018;2022-12-18T08:39:19;11.36;;;11.14;;
23668;SDS011;12011;47.422;15.018;2022-12-18T08:41:48;11.37;;;11.20;;
23668;SDS011;12011;47.422;15.018;2022-12-18T08:44:30;10.10;;;10.02;;
23668;SDS011;12011;47.422;15.018;2022-12-18T08:47:06;9.68;;;9.59;;
23668;SDS011;12011;47.422;15.018;2022-12-18T08:49:39;10.51;;;10.37;;
23668;SDS011;12011;47.422;15.018;2022-12-18T08:52:09;10.87;;;10.72;;
23668;SDS011;12011;47.422;15.018;2022-12-18T08:54:41;15.84;;;15.75;;
23668;SDS011;12011;47.422;15.018;2022-12-18T08:57:11;12.47;;;12.45;;
23668;SDS011;12011;47.422;15.018;2022-12-18T08:59:40;10.57;;;10.46;;
23668;SDS011;12011;47.422;15.018;2022-12-18T09:02:10;9.58;;;9.46;;
23668;SDS011;12011;47.422;15.018;2022-12-18T09:04:43;9.63;;;9.46;;
23668;SDS011;12011;47.422;15.018;2022-12-18T09:07:15;8.65;;;8.42;;
23668;SDS011;12011;47.422;15.018;2022-12-18T09:09:44;7.90;;;7.66;;
23668;SDS011;12011;47.422;15.018;2022-12-18T09:12:14;8.65;;;8.36;;
23668;SDS011;12011;47.422;15.018;2022-12-18T09:14:43;9.46;;;9.21;;
23668;SDS011;12011;47.422;15.018;2022-12-18T09:17:13;9.52;;;9.27;;
23668;SDS011;12011;47.422;15.018;2022-12-18T09:19:47;9.45;;;9.15;;
23668;SDS011;12011;47.422;15.018;2022-12-18T09:22:17;8.97;;;8.62;;
23668;SDS011;12011;47.422;15.018;2022-12-18T09:24:48;8.65;;;8.41;;
23668;SDS011;12011;47.422;15.018;2022-12-18T09:27:17;8.31;;;8.13;;
23668;SDS011;12011;47.422;15.018;2022-12-18T09:29:47;8.30;;;8.09;;
23668;SDS011;12011;47.422;15.018;2022-12-18T09:32:16;8.29;;;8.07;;
23668;SDS011;12011;47.422;15.018;2022-12-18T09:34:49;7.68;;;7.52;;
23668;SDS011;12011;47.422;15.018;2022-12-18T09:37:18;7.57;;;7.40;;
23668;SDS011;12011;47.422;15.018;2022-12-18T09:39:48;7.04;;;6.89;;
23668;SDS011;12011;47.422;15.018;2022-12-18T09:42:18;7.08;;;6.95;;
23668;SDS011;12011;47.422;15.018;2022-12-18T09:44:51;7.53;;;7.35;;
23668;SDS011;12011;47.422;15.018;2022-12-18T09:47:23;7.50;;;7.35;;
23668;SDS011;12011;47.422;15.018;2022-12-18T09:50:04;7.26;;;7.08;;
23668;SDS011;12011;47.422;15.018;2022-12-18T09:52:48;7.81;;;7.64;;
23668;SDS011;12011;47.422;15.018;2022-12-18T09:55:25;6.49;;;6.37;;
23668;SDS011;12011;47.422;15.018;2022-12-18T09:58:02;6.04;;;5.90;;
23668;SDS011;12011;47.422;15.018;2022-12-18T10:00:43;6.50;;;6.42;;
23668;SDS011;12011;47.422;15.018;2022-12-18T10:06:04;7.44;;;7.20;;
23668;SDS011;12011;47.422;15.018;2022-12-18T10:08:46;7.62;;;7.32;;
23668;SDS011;12011;47.422;15.018;2022-12-18T10:11:31;6.92;;;6.76;;
23668;SDS011;12011;47.422;15.018;2022-12-18T10:14:13;7.61;;;7.37;;
23668;SDS011;12011;47.422;15.018;2022-12-18T10:16:59;8.85;;;8.50;;
23668;SDS011;12011;47.422;15.018;2022-12-18T10:19:56;9.28;;;8.99;;
23668;SDS011;12011;47.422;15.018;2022-12-18T10:22:39;9.49;;;9.25;;
23668;SDS011;12011;47.422;15.018;2022-12-18T10:25:34;11.02;;;10.72;;
23668;SDS011;12011;47.422;15.018;2022-12-18T10:28:23;10.77;;;10.38;;
23668;SDS011;12011;47.422;15.018;2022-12-18T10:31:18;10.22;;;9.89;;
23668;SDS011;12011;47.422;15.018;2022-12-18T10:34:17;9.50;;;9.25;;
23668;SDS011;12011;47.422;15.018;2022-12-18T10:40:13;9.09;;;8.85;;
23668;SDS011;12011;47.422;15.018;2022-12-18T10:43:03;8.88;;;8.65;;
23668;SDS011;12011;47.422;15.018;2022-12-18T10:45:34;9.56;;;9.27;;
23668;SDS011;12011;47.422;15.018;2022-12-18T10:48:03;8.94;;;8.67;;
23668;SDS011;12011;47.422;15.018;2022-12-18T10:50:46;8.91;;;8.69;;
23668;SDS011;12011;47.422;15.018;2022-12-18T10:53:21;8.28;;;8.12;;
23668;SDS011;12011;47.422;15.018;2022-12-18T10:56:02;8.02;;;7.87;;
23668;SDS011;12011;47.422;15.018;2022-12-18T10:58:36;7.95;;;7.77;;
23668;SDS011;12011;47.422;15.018;2022-12-18T11:01:09;8.38;;;8.18;;
23668;SDS011;12011;47.422;15.018;2022-12-18T11:03:42;9.41;;;9.17;;
23668;SDS011;12011;47.422;15.018;2022-12-18T11:06:14;9.21;;;8.94;;
23668;SDS011;12011;47.422;15.018;2022-12-18T11:08:57;8.57;;;8.38;;
23668;SDS011;12011;47.422;15.018;2022-12-18T11:11:31;8.36;;;8.17;;
23668;SDS011;12011;47.422;15.018;2022-12-18T11:14:02;8.68;;;8.46;;
23668;SDS011;12011;47.422;15.018;2022-12-18T11:16:42;8.95;;;8.63;;
23668;SDS011;12011;47.422;15.018;2022-12-18T11:19:19;8.73;;;8.53;;
23668;SDS011;12011;47.422;15.018;2022-12-18T11:21:58;8.80;;;8.60;;
23668;SDS011;12011;47.422;15.018;2022-12-18T11:24:30;7.30;;;7.17;;
23668;SDS011;12011;47.422;15.018;2022-12-18T11:27:16;7.41;;;7.23;;
23668;SDS011;12011;47.422;15.018;2022-12-18T11:30:06;7.73;;;7.52;;
23668;SDS011;12011;47.422;15.018;2022-12-18T11:32:54;6.78;;;6.66;;
23668;SDS011;12011;47.422;15.018;2022-12-18T11:35:46;7.09;;;6.98;;
23668;SDS011;12011;47.422;15.018;2022-12-18T11:38:21;6.97;;;6.86;;
23668;SDS011;12011;47.422;15.018;2022-12-18T11:40:56;7.46;;;7.41;;
23668;SDS011;12011;47.422;15.018;2022-12-18T11:43:40;7.12;;;7.03;;
23668;SDS011;12011;47.422;15.018;2022-12-18T11:46:23;7.07;;;6.96;;
23668;SDS011;12011;47.422;15.018;2022-12-18T11:49:01;6.97;;;6.81;;
23668;SDS011;12011;47.422;15.018;2022-12-18T11:51:41;5.70;;;5.56;;
23668;SDS011;12011;47.422;15.018;2022-12-18T11:54:22;5.84;;;5.67;;
23668;SDS011;12011;47.422;15.018;2022-12-18T11:56:53;5.47;;;5.40;;
23668;SDS011;12011;47.422;15.018;2022-12-18T11:59:39;5.00;;;4.95;;
23668;SDS011;12011;47.422;15.018;2022-12-18T12:02:25;4.94;;;4.90;;
23668;SDS011;12011;47.422;15.018;2022-12-18T12:05:21;4.62;;;4.58;;
23668;SDS011;12011;47.422;15.018;2022-12-18T12:08:08;4.76;;;4.73;;
23668;SDS011;12011;47.422;15.018;2022-12-18T12:10:53;4.74;;;4.69;;
23668;SDS011;12011;47.422;15.018;2022-12-18T12:13:41;5.17;;;5.14;;
23668;SDS011;12011;47.422;15.018;2022-12-18T12:16:27;4.96;;;4.93;;
23668;SDS011;12011;47.422;15.018;2022-12-18T12:19:13;5.24;;;5.20;;
23668;SDS011;12011;47.422;15.018;2022-12-18T12:22:07;5.30;;;5.27;;
23668;SDS011;12011;47.422;15.018;2022-12-18T12:24:53;5.29;;;5.22;;
23668;SDS011;12011;47.422;15.018;2022-12-18T12:27:37;5.39;;;5.31;;
23668;SDS011;12011;47.422;15.018;2022-12-18T12:30:20;5.45;;;5.38;;
23668;SDS011;12011;47.422;15.018;2022-12-18T12:33:02;5.43;;;5.40;;
23668;SDS011;12011;47.422;15.018;2022-12-18T12:35:52;4.93;;;4.87;;
23668;SDS011;12011;47.422;15.018;2022-12-18T12:38:36;4.75;;;4.71;;
23668;SDS011;12011;47.422;15.018;2022-12-18T12:41:12;5.12;;;5.06;;
23668;SDS011;12011;47.422;15.018;2022-12-18T12:43:59;5.48;;;5.43;;
23668;SDS011;12011;47.422;15.018;2022-12-18T12:46:36;5.62;;;5.56;;
23668;SDS011;12011;47.422;15.018;2022-12-18T12:49:14;5.36;;;5.33;;
23668;SDS011;12011;47.422;15.018;2022-12-18T12:51:53;5.47;;;5.44;;
23668;SDS011;12011;47.422;15.018;2022-12-18T12:54:29;5.55;;;5.46;;
23668;SDS011;12011;47.422;15.018;2022-12-18T12:57:04;6.67;;;6.56;;
23668;SDS011;12011;47.422;15.018;2022-12-18T12:59:46;7.08;;;6.88;;
23668;SDS011;12011;47.422;15.018;2022-12-18T13:02:28;7.63;;;7.47;;
23668;SDS011;12011;47.422;15.018;2022-12-18T13:05:11;7.59;;;7.46;;
23668;SDS011;12011;47.422;15.018;2022-12-18T13:07:52;7.87;;;7.75;;
23668;SDS011;12011;47.422;15.018;2022-12-18T13:10:31;7.08;;;6.96;;
23668;SDS011;12011;47.422;15.018;2022-12-18T13:13:04;6.09;;;6.05;;
23668;SDS011;12011;47.422;15.018;2022-12-18T13:15:37;6.40;;;6.34;;
23668;SDS011;12011;47.422;15.018;2022-12-18T13:18:18;6.08;;;5.96;;
23668;SDS011;12011;47.422;15.018;2022-12-18T13:21:01;5.92;;;5.81;;
23668;SDS011;12011;47.422;15.018;2022-12-18T13:23:42;5.33;;;5.25;;
23668;SDS011;12011;47.422;15.018;2022-12-18T13:29:02;5.20;;;5.12;;
23668;SDS011;12011;47.422;15.018;2022-12-18T13:38:16;5.84;;;5.72;;
23668;SDS011;12011;47.422;15.018;2022-12-18T13:40:55;5.60;;;5.54;;
23668;SDS011;12011;47.422;15.018;2022-12-18T13:43:30;6.19;;;6.10;;
23668;SDS011;12011;47.422;15.018;2022-12-18T13:46:21;5.80;;;5.69;;
23668;SDS011;12011;47.422;15.018;2022-12-18T13:48:57;5.71;;;5.53;;
23668;SDS011;12011;47.422;15.018;2022-12-18T13:51:32;5.90;;;5.80;;
23668;SDS011;12011;47.422;15.018;2022-12-18T13:54:13;5.98;;;5.87;;
23668;SDS011;12011;47.422;15.018;2022-12-18T13:56:59;6.31;;;6.21;;
23668;SDS011;12011;47.422;15.018;2022-12-18T13:59:33;6.75;;;6.65;;
23668;SDS011;12011;47.422;15.018;2022-12-18T14:02:07;7.26;;;7.15;;
23668;SDS011;12011;47.422;15.018;2022-12-18T14:04:44;7.71;;;7.59;;
23668;SDS011;12011;47.422;15.018;2022-12-18T14:07:17;7.67;;;7.54;;
23668;SDS011;12011;47.422;15.018;2022-12-18T14:09:54;7.80;;;7.61;;
23668;SDS011;12011;47.422;15.018;2022-12-18T14:12:27;8.54;;;8.29;;
23668;SDS011;12011;47.422;15.018;2022-12-18T14:15:25;8.60;;;8.40;;
23668;SDS011;12011;47.422;15.018;2022-12-18T14:18:05;8.31;;;8.13;;
23668;SDS011;12011;47.422;15.018;2022-12-18T14:20:52;8.17;;;7.94;;
23668;SDS011;12011;47.422;15.018;2022-12-18T14:23:29;8.12;;;7.90;;
23668;SDS011;12011;47.422;15.018;2022-12-18T14:28:55;8.71;;;8.49;;
23668;SDS011;12011;47.422;15.018;2022-12-18T14:31:46;8.73;;;8.45;;
23668;SDS011;12011;47.422;15.018;2022-12-18T14:34:44;9.56;;;9.33;;
23668;SDS011;12011;47.422;15.018;2022-12-18T14:37:15;10.88;;;10.71;;
23668;SDS011;12011;47.422;15.018;2022-12-18T14:39:52;10.51;;;10.26;;
23668;SDS011;12011;47.422;15.018;2022-12-18T14:42:32;9.91;;;9.74;;
23668;SDS011;12011;47.422;15.018;2022-12-18T14:48:07;8.31;;;8.16;;
23668;SDS011;12011;47.422;15.018;2022-12-18T14:50:44;7.94;;;7.74;;
23668;SDS011;12011;47.422;15.018;2022-12-18T14:53:26;7.17;;;7.00;;
23668;SDS011;12011;47.422;15.018;2022-12-18T14:56:12;7.07;;;6.94;;
23668;SDS011;12011;47.422;15.018;2022-12-18T14:58:50;7.03;;;6.90;;
23668;SDS011;12011;47.422;15.018;2022-12-18T15:01:25;7.72;;;7.62;;
23668;SDS011;12011;47.422;15.018;2022-12-18T15:03:57;7.79;;;7.66;;
23668;SDS011;12011;47.422;15.018;2022-12-18T15:06:33;7.37;;;7.29;;
23668;SDS011;12011;47.422;15.018;2022-12-18T15:09:21;7.80;;;7.73;;
23668;SDS011;12011;47.422;15.018;2022-12-18T15:11:55;7.59;;;7.50;;
23668;SDS011;12011;47.422;15.018;2022-12-18T15:14:33;7.42;;;7.25;;
23668;SDS011;12011;47.422;15.018;2022-12-18T15:17:14;7.36;;;7.19;;
23668;SDS011;12011;47.422;15.018;2022-12-18T15:19:50;7.30;;;7.16;;
23668;SDS011;12011;47.422;15.018;2022-12-18T15:22:27;7.51;;;7.31;;
23668;SDS011;12011;47.422;15.018;2022-12-18T15:25:02;7.53;;;7.33;;
23668;SDS011;12011;47.422;15.018;2022-12-18T15:27:53;7.61;;;7.46;;
23668;SDS011;12011;47.422;15.018;2022-12-18T15:30:26;7.39;;;7.31;;
23668;SDS011;12011;47.422;15.018;2022-12-18T15:35:56;8.53;;;8.37;;
23668;SDS011;12011;47.422;15.018;2022-12-18T15:38:26;8.65;;;8.52;;
23668;SDS011;12011;47.422;15.018;2022-12-18T15:44:02;7.56;;;7.36;;
23668;SDS011;12011;47.422;15.018;2022-12-18T15:46:58;8.06;;;7.94;;
23668;SDS011;12011;47.422;15.018;2022-12-18T15:49:28;8.19;;;8.09;;